VTBD/DMK METAR and TAF weather

Enter ICAO airport designator
Station Type Date Time Source
VTBD METAR 2020/11/27 02:30 UTC NOAA

VTBD 270230Z 02010KT 9999 FEW030 28/21 Q1015 NOSIG


Station Type Date Time Source
VTBD Decoded METAR 2020/11/27 02:30 UTC NOAA

Don Muang, Thailand (VTBD) 13-55N 100-36E 12M
Nov 26, 2020 - 09:30 PM EST / 2020.11.27 0230 UTC
Wind: from the NNE (020 degrees) at 12 MPH (10 KT):0
Visibility: greater than 7 mile(s):0
Sky conditions: mostly clear
Temperature: 82 F (28 C)
Dew Point: 69 F (21 C)
Relative Humidity: 65%
Pressure (altimeter): 29.97 in. Hg (1015 hPa)
ob: VTBD 270230Z 02010KT 9999 FEW030 28/21 Q1015 NOSIG
cycle: 2

Station Type Date Time Source
VTBD TAF 2020/11/26 18:36 UTC NOAA

TAF TAF VTBD 261700Z 2618/2724 05008KT 9999 FEW025

Example: see airport list